Time;durP1;ratioP1;P1;durP2;ratioP2;P2;SDS_P1;SDS_P2;PMS_P1;PMS_P2;Temp;Humidity;BMP_temperature;BMP_pressure;BME280_temperature;BME280_humidity;BME280_pressure;Samples;Min_cycle;Max_cycle;Signal;HPM_P1;HPM_P2
2021/03/29 00:02:07;;;;;;;;;;;;;;;;;;5067672;28;1997;-63
2021/03/29 00:04:32;;;;;;;;;;;;;;;;;;5068130;28;914;-63
2021/03/29 00:07:00;;;;;;;;;;;;;;;;;;5064813;28;1108;-63
2021/03/29 00:09:25;;;;;;;;;;;;;;;;;;5067671;28;1090;-63
2021/03/29 00:11:54;;;;;;;;;;;;;;;;;;5067058;28;1448;-63
2021/03/29 00:14:19;;;;;;;;;;;;;;;;;;5047827;28;1395;-64
2021/03/29 00:16:45;;;;;;;;;;;;;;;;;;5048240;28;875;-63
2021/03/29 00:19:10;;;;;;;;;;;;;;;;;;5045710;28;918;-63
2021/03/29 00:21:36;;;;;;;;;;;;;;;;;;5047799;28;1897;-63
2021/03/29 00:24:03;;;;;;;;;;;;;;;;;;5047662;28;819;-63
2021/03/29 00:26:28;;;;;;;;;;;;;;;;;;5047738;28;890;-63
2021/03/29 00:28:53;;;;;;;;;;;;;;;;;;5047740;28;827;-64
2021/03/29 00:31:19;;;;;;;;;;;;;;;;;;5047884;28;878;-64
2021/03/29 00:33:45;;;;;;;;;;;;;;;;;;5048026;28;891;-63
2021/03/29 00:36:11;;;;;;;;;;;;;;;;;;5047224;28;843;-63
2021/03/29 00:38:38;;;;;;;;;;;;;;;;;;5047710;28;1150;-63
2021/03/29 00:41:08;;;;;;;;;;;;;;;;;;5047191;28;1890;-63
2021/03/29 00:43:35;;;;;;;;;;;;;;;;;;5046339;28;1261;-63
2021/03/29 00:46:01;;;;;;;;;;;;;;;;;;5047115;28;843;-63
2021/03/29 00:48:28;;;;;;;;;;;;;;;;;;5046947;28;891;-63
2021/03/29 00:51:11;;;;;;;;;;;;;;;;;;5058440;28;1171;-64
2021/03/29 00:53:38;;;;;;;;;;;;;;;;;;5067378;28;1106;-63
2021/03/29 00:56:04;;;;;;;;;;;;;;;;;;5067907;28;879;-63
2021/03/29 00:58:31;;;;;;;;;;;;;;;;;;5066835;28;662;-63
2021/03/29 01:00:59;;;;;;;;;;;;;;;;;;5066931;28;1972;-63
2021/03/29 01:03:27;;;;;;;;;;;;;;;;;;5067378;28;910;-63
2021/03/29 01:06:06;;;;;;;;;;;;;;;;;;5055049;28;1684;-63
2021/03/29 01:08:36;;;;;;;;;;;;;;;;;;5052960;28;832;-63
2021/03/29 01:11:03;;;;;;;;;;;;;;;;;;5054010;28;855;-63
2021/03/29 01:13:30;;;;;;;;;;;;;;;;;;5053599;28;1348;-63
2021/03/29 01:15:56;;;;;;;;;;;;;;;;;;5053879;28;901;-63
2021/03/29 01:18:22;;;;;;;;;;;;;;;;;;5053497;28;893;-64
2021/03/29 01:21:03;;;;;;;;;;;;;;;;;;5054463;28;1987;-63
2021/03/29 01:23:29;;;;;;;;;;;;;;;;;;5053315;28;854;-63
2021/03/29 01:26:02;;;;;;;;;;;;;;;;;;5053552;28;867;-64
2021/03/29 01:28:28;;;;;;;;;;;;;;;;;;5052677;28;1176;-64
2021/03/29 01:30:54;;;;;;;;;;;;;;;;;;5053494;28;853;-64
2021/03/29 01:33:20;;;;;;;;;;;;;;;;;;5053768;28;815;-64
2021/03/29 01:35:47;;;;;;;;;;;;;;;;;;5054487;28;807;-63
2021/03/29 01:38:13;;;;;;;;;;;;;;;;;;5053820;28;906;-63
2021/03/29 01:40:39;;;;;;;;;;;;;;;;;;5053507;28;1898;-64
2021/03/29 01:43:06;;;;;;;;;;;;;;;;;;5053320;28;1360;-64
2021/03/29 01:45:32;;;;;;;;;;;;;;;;;;5054128;28;859;-63
2021/03/29 01:47:58;;;;;;;;;;;;;;;;;;5053945;28;919;-64
2021/03/29 01:50:26;;;;;;;;;;;;;;;;;;5053508;28;891;-63
2021/03/29 01:52:52;;;;;;;;;;;;;;;;;;5054850;28;1150;-63
2021/03/29 01:55:18;;;;;;;;;;;;;;;;;;5073853;28;1147;-63
2021/03/29 01:57:43;;;;;;;;;;;;;;;;;;5073015;28;827;-63
2021/03/29 02:00:10;;;;;;;;;;;;;;;;;;5073062;28;931;-63
2021/03/29 02:02:36;;;;;;;;;;;;;;;;;;5069860;28;1926;-63
2021/03/29 02:05:01;;;;;;;;;;;;;;;;;;5073123;28;830;-64
2021/03/29 02:07:27;;;;;;;;;;;;;;;;;;5072884;28;871;-63
2021/03/29 02:09:52;;;;;;;;;;;;;;;;;;5072936;28;1162;-63
2021/03/29 02:12:18;;;;;;;;;;;;;;;;;;5073402;28;898;-63
2021/03/29 02:14:44;;;;;;;;;;;;;;;;;;5072701;28;815;-63
2021/03/29 02:17:09;;;;;;;;;;;;;;;;;;5073330;28;899;-63
2021/03/29 02:19:35;;;;;;;;;;;;;;;;;;5069311;28;866;-63
2021/03/29 02:22:02;;;;;;;;;;;;;;;;;;5069692;28;1965;-63
2021/03/29 02:24:27;;;;;;;;;;;;;;;;;;5070157;28;878;-64
2021/03/29 02:26:53;;;;;;;;;;;;;;;;;;5070351;28;806;-63
2021/03/29 02:29:27;;;;;;;;;;;;;;;;;;5070215;28;827;-63
2021/03/29 02:31:53;;;;;;;;;;;;;;;;;;5069820;28;909;-64
2021/03/29 02:34:19;;;;;;;;;;;;;;;;;;5070919;28;894;-63
2021/03/29 02:36:45;;;;;;;;;;;;;;;;;;5070234;28;894;-63
2021/03/29 02:39:10;;;;;;;;;;;;;;;;;;5069263;28;866;-62
2021/03/29 02:41:36;;;;;;;;;;;;;;;;;;5064784;28;1889;-62
2021/03/29 02:44:01;;;;;;;;;;;;;;;;;;5066012;28;1190;-63
2021/03/29 02:46:28;;;;;;;;;;;;;;;;;;5068893;28;895;-64
2021/03/29 02:48:55;;;;;;;;;;;;;;;;;;5068653;28;862;-64
2021/03/29 02:51:20;;;;;;;;;;;;;;;;;;5069263;28;854;-64
2021/03/29 02:53:50;;;;;;;;;;;;;;;;;;5069415;28;1161;-64
2021/03/29 02:56:18;;;;;;;;;;;;;;;;;;5069702;28;851;-63
2021/03/29 02:58:44;;;;;;;;;;;;;;;;;;5066879;28;851;-64
2021/03/29 03:01:13;;;;;;;;;;;;;;;;;;5069131;28;1905;-63
2021/03/29 03:03:39;;;;;;;;;;;;;;;;;;5069144;28;945;-63
2021/03/29 03:06:04;;;;;;;;;;;;;;;;;;5069020;28;855;-64
2021/03/29 03:08:33;;;;;;;;;;;;;;;;;;5069524;28;894;-64
2021/03/29 03:10:58;;;;;;;;;;;;;;;;;;5068909;28;1006;-64
2021/03/29 03:13:24;;;;;;;;;;;;;;;;;;5068356;28;830;-64
2021/03/29 03:15:50;;;;;;;;;;;;;;;;;;5069929;28;882;-63
2021/03/29 03:18:15;;;;;;;;;;;;;;;;;;5070096;28;839;-63
2021/03/29 03:20:41;;;;;;;;;;;;;;;;;;5068675;28;1894;-63
2021/03/29 03:23:09;;;;;;;;;;;;;;;;;;5068981;28;874;-64
2021/03/29 03:25:36;;;;;;;;;;;;;;;;;;5069204;28;901;-63
2021/03/29 03:28:03;;;;;;;;;;;;;;;;;;5067479;28;902;-64
2021/03/29 03:30:30;;;;;;;;;;;;;;;;;;5067843;28;823;-64
2021/03/29 03:32:56;;;;;;;;;;;;;;;;;;5068740;28;969;-64
2021/03/29 03:35:22;;;;;;;;;;;;;;;;;;5068565;28;894;-64
2021/03/29 03:38:08;;;;;;;;;;;;;;;;;;5069218;28;874;-63
2021/03/29 03:40:33;;;;;;;;;;;;;;;;;;5068104;28;1950;-63
2021/03/29 03:43:00;;;;;;;;;;;;;;;;;;5067612;28;909;-64
2021/03/29 03:45:29;;;;;;;;;;;;;;;;;;5067875;28;846;-64
2021/03/29 03:47:55;;;;;;;;;;;;;;;;;;5066495;28;1277;-64
2021/03/29 03:50:21;;;;;;;;;;;;;;;;;;5067942;28;847;-64
2021/03/29 03:52:48;;;;;;;;;;;;;;;;;;5067484;28;1104;-64
2021/03/29 03:55:14;;;;;;;;;;;;;;;;;;5046716;28;856;-63
2021/03/29 03:57:40;;;;;;;;;;;;;;;;;;5048073;28;840;-63
2021/03/29 04:00:07;;;;;;;;;;;;;;;;;;5048248;28;886;-63
2021/03/29 04:02:35;;;;;;;;;;;;;;;;;;5047553;28;1930;-63
2021/03/29 04:05:00;;;;;;;;;;;;;;;;;;5047725;28;878;-64
2021/03/29 04:07:25;;;;;;;;;;;;;;;;;;5047849;28;816;-63
2021/03/29 04:09:56;;;;;;;;;;;;;;;;;;5047960;28;1239;-64
2021/03/29 04:12:21;;;;;;;;;;;;;;;;;;5048864;28;1137;-64
2021/03/29 04:14:47;;;;;;;;;;;;;;;;;;5048758;28;811;-63
2021/03/29 04:17:12;;;;;;;;;;;;;;;;;;5047630;28;923;-64
2021/03/29 04:19:37;;;;;;;;;;;;;;;;;;5046807;28;844;-64
2021/03/29 04:22:02;;;;;;;;;;;;;;;;;;5047268;28;1988;-64
2021/03/29 04:24:28;;;;;;;;;;;;;;;;;;5048068;28;891;-64
2021/03/29 04:26:53;;;;;;;;;;;;;;;;;;5047572;28;831;-64
2021/03/29 04:29:19;;;;;;;;;;;;;;;;;;5048144;28;803;-64
2021/03/29 04:31:45;;;;;;;;;;;;;;;;;;5048850;28;961;-64
2021/03/29 04:34:10;;;;;;;;;;;;;;;;;;5047465;28;946;-63
2021/03/29 04:36:36;;;;;;;;;;;;;;;;;;5047466;28;909;-64
2021/03/29 04:39:02;;;;;;;;;;;;;;;;;;5047550;28;902;-64
2021/03/29 04:41:27;;;;;;;;;;;;;;;;;;5046849;28;1918;-64
2021/03/29 04:43:53;;;;;;;;;;;;;;;;;;5047300;28;918;-63
2021/03/29 04:46:18;;;;;;;;;;;;;;;;;;5047993;28;867;-64
2021/03/29 04:48:44;;;;;;;;;;;;;;;;;;5047666;28;918;-64
2021/03/29 04:51:09;;;;;;;;;;;;;;;;;;5047082;28;828;-63
2021/03/29 04:53:35;;;;;;;;;;;;;;;;;;5054583;28;1098;-63
2021/03/29 04:56:00;;;;;;;;;;;;;;;;;;5067278;28;981;-64
2021/03/29 04:58:25;;;;;;;;;;;;;;;;;;5067148;28;906;-63
2021/03/29 05:00:51;;;;;;;;;;;;;;;;;;5066870;28;1964;-64
2021/03/29 05:03:16;;;;;;;;;;;;;;;;;;5067634;28;827;-63
2021/03/29 05:05:42;;;;;;;;;;;;;;;;;;5067318;28;890;-63
2021/03/29 05:08:07;;;;;;;;;;;;;;;;;;5066830;28;898;-63
2021/03/29 05:10:34;;;;;;;;;;;;;;;;;;5066797;28;873;-63
2021/03/29 05:13:00;;;;;;;;;;;;;;;;;;5067216;28;850;-63
2021/03/29 05:15:25;;;;;;;;;;;;;;;;;;5066997;28;819;-63
2021/03/29 05:17:50;;;;;;;;;;;;;;;;;;5067139;28;811;-63
2021/03/29 05:20:16;;;;;;;;;;;;;;;;;;5068089;28;941;-63
2021/03/29 05:22:41;;;;;;;;;;;;;;;;;;5067321;28;1898;-63
2021/03/29 05:25:06;;;;;;;;;;;;;;;;;;5066999;28;834;-63
2021/03/29 05:27:32;;;;;;;;;;;;;;;;;;5065677;28;847;-63
2021/03/29 05:29:57;;;;;;;;;;;;;;;;;;5067544;28;870;-63
2021/03/29 05:32:24;;;;;;;;;;;;;;;;;;5066472;28;847;-64
2021/03/29 05:34:51;;;;;;;;;;;;;;;;;;5066745;28;874;-64
2021/03/29 05:37:18;;;;;;;;;;;;;;;;;;5067375;28;1977;-63
2021/03/29 05:39:44;;;;;;;;;;;;;;;;;;5066324;28;923;-63
2021/03/29 05:42:10;;;;;;;;;;;;;;;;;;5067003;28;1960;-63
2021/03/29 05:44:36;;;;;;;;;;;;;;;;;;5066993;28;906;-63
2021/03/29 05:47:01;;;;;;;;;;;;;;;;;;5067190;28;863;-63
2021/03/29 05:49:27;;;;;;;;;;;;;;;;;;5066706;28;911;-63
2021/03/29 05:51:52;;;;;;;;;;;;;;;;;;5066364;28;909;-63
2021/03/29 05:54:18;;;;;;;;;;;;;;;;;;5056887;28;1164;-63
2021/03/29 05:56:44;;;;;;;;;;;;;;;;;;5050506;28;840;-63
2021/03/29 05:59:19;;;;;;;;;;;;;;;;;;5049771;28;1200;-63
2021/03/29 06:01:47;;;;;;;;;;;;;;;;;;5050253;28;1980;-64
2021/03/29 06:04:13;;;;;;;;;;;;;;;;;;5053263;28;1009;-64
2021/03/29 06:06:39;;;;;;;;;;;;;;;;;;5050091;28;1653;-63
2021/03/29 06:09:04;;;;;;;;;;;;;;;;;;5049832;28;827;-63
2021/03/29 06:11:31;;;;;;;;;;;;;;;;;;5050488;28;843;-63
2021/03/29 06:14:14;;;;;;;;;;;;;;;;;;5049905;28;1347;-63
2021/03/29 06:16:59;;;;;;;;;;;;;;;;;;5049561;28;881;-64
2021/03/29 06:19:39;;;;;;;;;;;;;;;;;;5050243;28;918;-64
2021/03/29 06:22:08;;;;;;;;;;;;;;;;;;5049739;28;1893;-63
2021/03/29 06:24:52;;;;;;;;;;;;;;;;;;5049783;28;918;-63
2021/03/29 06:27:18;;;;;;;;;;;;;;;;;;5050263;28;1360;-63
2021/03/29 06:29:43;;;;;;;;;;;;;;;;;;5049485;28;1171;-63
2021/03/29 06:32:08;;;;;;;;;;;;;;;;;;5051820;28;1234;-63
2021/03/29 06:34:34;;;;;;;;;;;;;;;;;;5047724;28;1218;-64
2021/03/29 06:37:06;;;;;;;;;;;;;;;;;;5053282;28;1103;-62
2021/03/29 06:39:35;;;;;;;;;;;;;;;;;;5048581;28;946;-63
2021/03/29 06:42:00;;;;;;;;;;;;;;;;;;5048682;28;1967;-63
2021/03/29 06:44:30;;;;;;;;;;;;;;;;;;5048761;28;923;-62
2021/03/29 06:47:06;;;;;;;;;;;;;;;;;;5051925;28;1197;-62
2021/03/29 06:49:40;;;;;;;;;;;;;;;;;;5049855;28;1135;-63
2021/03/29 06:52:24;;;;;;;;;;;;;;;;;;5050440;28;1188;-63
2021/03/29 06:54:50;;;;;;;;;;;;;;;;;;5057965;28;1508;-63
2021/03/29 06:57:31;;;;;;;;;;;;;;;;;;5056037;28;1100;-63
2021/03/29 06:59:57;;;;;;;;;;;;;;;;;;5049542;28;1091;-63
2021/03/29 07:02:39;;;;;;;;;;;;;;;;;;5066089;28;1934;-62
2021/03/29 07:05:05;;;;;;;;;;;;;;;;;;5063516;28;1149;-63
2021/03/29 07:07:30;;;;;;;;;;;;;;;;;;5051744;28;1222;-64
2021/03/29 07:09:58;;;;;;;;;;;;;;;;;;5059896;28;1387;-64
2021/03/29 07:12:25;;;;;;;;;;;;;;;;;;5059921;28;1139;-62
2021/03/29 07:14:51;;;;;;;;;;;;;;;;;;5056789;28;1068;-62
2021/03/29 07:17:18;;;;;;;;;;;;;;;;;;5049506;28;861;-63
2021/03/29 07:19:44;;;;;;;;;;;;;;;;;;5044528;28;1555;-64
2021/03/29 07:22:10;;;;;;;;;;;;;;;;;;5040047;28;1893;-64
2021/03/29 07:24:35;;;;;;;;;;;;;;;;;;5028308;28;831;-64
2021/03/29 07:27:01;;;;;;;;;;;;;;;;;;5028705;28;846;-63
2021/03/29 07:29:32;;;;;;;;;;;;;;;;;;5027893;28;867;-64
2021/03/29 07:31:58;;;;;;;;;;;;;;;;;;5028495;28;840;-64
2021/03/29 07:34:48;;;;;;;;;;;;;;;;;;5028684;28;887;-65
2021/03/29 07:37:28;;;;;;;;;;;;;;;;;;5054395;28;1223;-65
2021/03/29 07:39:54;;;;;;;;;;;;;;;;;;5068174;28;839;-64
2021/03/29 07:42:22;;;;;;;;;;;;;;;;;;5069016;28;1933;-64
2021/03/29 07:44:58;;;;;;;;;;;;;;;;;;5069579;28;933;-68
2021/03/29 07:47:39;;;;;;;;;;;;;;;;;;5052716;28;1123;-66
2021/03/29 07:50:04;;;;;;;;;;;;;;;;;;5048315;28;917;-61
2021/03/29 07:52:30;;;;;;;;;;;;;;;;;;5048526;28;1025;-60
2021/03/29 07:54:56;;;;;;;;;;;;;;;;;;5066149;28;1190;-61
2021/03/29 07:57:57;;;;;;;;;;;;;;;;;;5067712;28;870;-62
2021/03/29 08:00:22;;;;;;;;;;;;;;;;;;5034021;28;1150;-60
2021/03/29 08:02:48;;;;;;;;;;;;;;;;;;5044039;28;1977;-61
2021/03/29 08:05:15;;;;;;;;;;;;;;;;;;5034334;28;2335;-64
2021/03/29 08:07:41;;;;;;;;;;;;;;;;;;5048152;28;915;-66
2021/03/29 08:10:08;;;;;;;;;;;;;;;;;;5047762;28;827;-62
2021/03/29 08:12:34;;;;;;;;;;;;;;;;;;5047978;28;854;-66
2021/03/29 08:14:59;;;;;;;;;;;;;;;;;;5047656;28;811;-64
2021/03/29 08:17:54;;;;;;;;;;;;;;;;;;5047503;28;828;-66
2021/03/29 08:20:33;;;;;;;;;;;;;;;;;;5043342;28;1329;-64
2021/03/29 08:23:17;;;;;;;;;;;;;;;;;;5047743;28;842;-62
2021/03/29 08:25:43;;;;;;;;;;;;;;;;;;5048095;28;733;-60
2021/03/29 08:28:08;;;;;;;;;;;;;;;;;;5046904;28;863;-61
2021/03/29 08:30:40;;;;;;;;;;;;;;;;;;5046933;28;835;-63
2021/03/29 08:33:09;;;;;;;;;;;;;;;;;;5052023;28;1230;-61
2021/03/29 08:35:37;;;;;;;;;;;;;;;;;;5057094;28;1252;-62
2021/03/29 08:38:06;;;;;;;;;;;;;;;;;;5055187;28;2259;-62
2021/03/29 08:40:33;;;;;;;;;;;;;;;;;;5044784;28;1971;-61
2021/03/29 08:43:03;;;;;;;;;;;;;;;;;;5027686;28;919;-61
2021/03/29 08:45:28;;;;;;;;;;;;;;;;;;5027299;28;875;-61
2021/03/29 08:47:58;;;;;;;;;;;;;;;;;;5027403;28;910;-61
2021/03/29 08:50:28;;;;;;;;;;;;;;;;;;5027795;28;914;-60
2021/03/29 08:52:57;;;;;;;;;;;;;;;;;;5031192;28;1158;-61
2021/03/29 08:55:23;;;;;;;;;;;;;;;;;;5067236;28;893;-61
2021/03/29 08:57:50;;;;;;;;;;;;;;;;;;5067410;28;894;-61
2021/03/29 09:00:17;;;;;;;;;;;;;;;;;;5067441;28;803;-61
2021/03/29 09:02:43;;;;;;;;;;;;;;;;;;5066585;28;1987;-61
2021/03/29 09:05:09;;;;;;;;;;;;;;;;;;5066782;28;866;-60
2021/03/29 09:07:48;;;;;;;;;;;;;;;;;;5067198;28;929;-61
2021/03/29 09:10:36;;;;;;;;;;;;;;;;;;5066934;28;818;-61
2021/03/29 09:13:03;;;;;;;;;;;;;;;;;;5065998;28;874;-61
2021/03/29 09:15:31;;;;;;;;;;;;;;;;;;5066819;28;819;-60
2021/03/29 09:18:04;;;;;;;;;;;;;;;;;;5059975;28;1276;-62
2021/03/29 09:20:31;;;;;;;;;;;;;;;;;;5047061;28;877;-63
2021/03/29 09:22:57;;;;;;;;;;;;;;;;;;5045702;28;843;-62
2021/03/29 09:25:34;;;;;;;;;;;;;;;;;;5051923;28;1898;-61
2021/03/29 09:28:10;;;;;;;;;;;;;;;;;;5060399;28;1194;-62
2021/03/29 09:30:35;;;;;;;;;;;;;;;;;;5068921;28;838;-62
2021/03/29 09:33:00;;;;;;;;;;;;;;;;;;5069427;28;831;-61
2021/03/29 09:35:26;;;;;;;;;;;;;;;;;;5069789;28;878;-62
2021/03/29 09:37:51;;;;;;;;;;;;;;;;;;5069962;28;894;-62
2021/03/29 09:40:17;;;;;;;;;;;;;;;;;;5070828;28;846;-61
2021/03/29 09:42:53;;;;;;;;;;;;;;;;;;5070442;28;1894;-62
2021/03/29 09:45:28;;;;;;;;;;;;;;;;;;5070888;28;866;-61
2021/03/29 09:48:08;;;;;;;;;;;;;;;;;;5069926;28;1163;-62
2021/03/29 09:50:37;;;;;;;;;;;;;;;;;;5061025;28;1185;-62
2021/03/29 09:53:22;;;;;;;;;;;;;;;;;;5067570;28;1144;-62
2021/03/29 09:55:52;;;;;;;;;;;;;;;;;;5070700;28;835;-62
2021/03/29 09:58:20;;;;;;;;;;;;;;;;;;5070977;28;796;-61
2021/03/29 10:00:46;;;;;;;;;;;;;;;;;;5070759;28;1906;-62
2021/03/29 10:03:15;;;;;;;;;;;;;;;;;;5068717;28;1228;-62
2021/03/29 10:05:40;;;;;;;;;;;;;;;;;;5059265;28;1153;-62
2021/03/29 10:08:06;;;;;;;;;;;;;;;;;;5064729;28;1052;-62
2021/03/29 10:10:31;;;;;;;;;;;;;;;;;;5063664;28;1083;-62
2021/03/29 10:13:23;;;;;;;;;;;;;;;;;;5054772;28;1211;-62
2021/03/29 10:15:48;;;;;;;;;;;;;;;;;;5064815;28;2127;-61
2021/03/29 10:18:14;;;;;;;;;;;;;;;;;;5070081;28;890;-62
2021/03/29 10:20:44;;;;;;;;;;;;;;;;;;5069363;28;1881;-62
2021/03/29 10:23:19;;;;;;;;;;;;;;;;;;5070140;28;831;-61
2021/03/29 10:26:05;;;;;;;;;;;;;;;;;;5065689;28;1181;-62
2021/03/29 10:28:31;;;;;;;;;;;;;;;;;;5048767;28;1292;-62
2021/03/29 10:30:56;;;;;;;;;;;;;;;;;;5048529;28;899;-61
2021/03/29 10:33:21;;;;;;;;;;;;;;;;;;5048859;28;1193;-62
2021/03/29 10:35:47;;;;;;;;;;;;;;;;;;5049163;28;1083;-62
2021/03/29 10:38:12;;;;;;;;;;;;;;;;;;5069042;28;847;-62
2021/03/29 10:40:37;;;;;;;;;;;;;;;;;;5065986;28;1885;-63
2021/03/29 10:43:03;;;;;;;;;;;;;;;;;;5067761;28;1062;-62
2021/03/29 10:45:28;;;;;;;;;;;;;;;;;;5068412;28;1181;-62
2021/03/29 10:47:53;;;;;;;;;;;;;;;;;;5069297;28;835;-62
2021/03/29 10:50:21;;;;;;;;;;;;;;;;;;5068752;28;1295;-62
2021/03/29 10:52:46;;;;;;;;;;;;;;;;;;5069648;28;1078;-62
2021/03/29 10:55:12;;;;;;;;;;;;;;;;;;5062784;28;1267;-62
2021/03/29 10:57:37;;;;;;;;;;;;;;;;;;5057589;28;1086;-62
2021/03/29 11:00:06;;;;;;;;;;;;;;;;;;5049322;28;1062;-62
2021/03/29 11:02:32;;;;;;;;;;;;;;;;;;5048092;28;1898;-62
2021/03/29 11:04:57;;;;;;;;;;;;;;;;;;5047350;28;862;-62
2021/03/29 11:07:22;;;;;;;;;;;;;;;;;;5048311;28;902;-62
2021/03/29 11:09:48;;;;;;;;;;;;;;;;;;5050179;28;808;-59
2021/03/29 11:12:13;;;;;;;;;;;;;;;;;;5047855;28;823;-62
2021/03/29 11:14:38;;;;;;;;;;;;;;;;;;5048970;28;819;-61
2021/03/29 11:17:04;;;;;;;;;;;;;;;;;;5048672;28;1348;-60
2021/03/29 11:19:30;;;;;;;;;;;;;;;;;;5048749;28;854;-62
2021/03/29 11:21:55;;;;;;;;;;;;;;;;;;5049184;28;1894;-62
2021/03/29 11:24:21;;;;;;;;;;;;;;;;;;5049019;28;839;-60
2021/03/29 11:26:46;;;;;;;;;;;;;;;;;;5048171;28;804;-61
2021/03/29 11:29:12;;;;;;;;;;;;;;;;;;5048883;28;827;-61
2021/03/29 11:31:40;;;;;;;;;;;;;;;;;;5048981;28;799;-61
2021/03/29 11:34:06;;;;;;;;;;;;;;;;;;5051341;28;1179;-62
2021/03/29 11:36:31;;;;;;;;;;;;;;;;;;5048107;28;1407;-61
2021/03/29 11:38:57;;;;;;;;;;;;;;;;;;5048527;28;1352;-60
2021/03/29 11:41:22;;;;;;;;;;;;;;;;;;5048337;28;1894;-60
2021/03/29 11:43:48;;;;;;;;;;;;;;;;;;5049034;28;843;-62
2021/03/29 11:46:14;;;;;;;;;;;;;;;;;;5048771;28;866;-60
2021/03/29 11:48:39;;;;;;;;;;;;;;;;;;5048854;28;883;-60
2021/03/29 11:51:05;;;;;;;;;;;;;;;;;;5048202;28;819;-60
2021/03/29 11:53:30;;;;;;;;;;;;;;;;;;5055392;28;1143;-60
2021/03/29 11:55:57;;;;;;;;;;;;;;;;;;5068662;28;807;-60
2021/03/29 11:58:22;;;;;;;;;;;;;;;;;;5067733;28;945;-60
2021/03/29 12:00:52;;;;;;;;;;;;;;;;;;5068637;28;1976;-61
2021/03/29 12:05:54;;;;;;;;;;;;;;;;;;5067530;28;1005;-63
2021/03/29 12:13:34;;;;;;;;;;;;;;;;;;5047936;28;766;-62
2021/03/29 12:16:00;;;;;;;;;;;;;;;;;;5047984;28;803;-61
2021/03/29 12:21:07;;;;;;;;;;;;;;;;;;5048407;28;1967;-61
2021/03/29 12:23:34;;;;;;;;;;;;;;;;;;5047616;28;824;-61
2021/03/29 12:26:00;;;;;;;;;;;;;;;;;;5047518;28;879;-61
2021/03/29 12:28:30;;;;;;;;;;;;;;;;;;5047515;28;883;-61
2021/03/29 12:30:57;;;;;;;;;;;;;;;;;;5047242;28;839;-62
2021/03/29 12:33:22;;;;;;;;;;;;;;;;;;5047333;28;872;-61
2021/03/29 12:35:48;;;;;;;;;;;;;;;;;;5047934;28;891;-62
2021/03/29 12:38:14;;;;;;;;;;;;;;;;;;5047050;28;1411;-63
2021/03/29 12:40:43;;;;;;;;;;;;;;;;;;5047046;28;843;-62
2021/03/29 12:43:12;;;;;;;;;;;;;;;;;;5047455;28;882;-62
2021/03/29 12:45:39;;;;;;;;;;;;;;;;;;5047930;28;803;-61
2021/03/29 12:48:09;;;;;;;;;;;;;;;;;;5047043;28;882;-60
2021/03/29 12:50:34;;;;;;;;;;;;;;;;;;5046973;28;843;-61
2021/03/29 12:53:00;;;;;;;;;;;;;;;;;;5049857;28;1102;-61
2021/03/29 12:55:26;;;;;;;;;;;;;;;;;;5051796;28;1237;-61
2021/03/29 12:57:55;;;;;;;;;;;;;;;;;;5046932;28;846;-61
2021/03/29 13:00:22;;;;;;;;;;;;;;;;;;5046701;28;889;-62
2021/03/29 13:02:49;;;;;;;;;;;;;;;;;;5047970;28;1906;-61
2021/03/29 13:05:41;;;;;;;;;;;;;;;;;;5047693;28;894;-64
2021/03/29 13:08:12;;;;;;;;;;;;;;;;;;5046013;28;1366;-64
2021/03/29 13:13:10;;;;;;;;;;;;;;;;;;5047340;28;862;-61
2021/03/29 13:15:35;;;;;;;;;;;;;;;;;;5047287;28;898;-62
2021/03/29 13:18:01;;;;;;;;;;;;;;;;;;5047045;28;893;-64
2021/03/29 13:20:26;;;;;;;;;;;;;;;;;;5046810;28;1711;-64
2021/03/29 13:22:52;;;;;;;;;;;;;;;;;;5046311;28;1914;-64
2021/03/29 13:25:24;;;;;;;;;;;;;;;;;;5047558;28;899;-63
2021/03/29 13:27:49;;;;;;;;;;;;;;;;;;5048098;28;843;-65
2021/03/29 13:30:17;;;;;;;;;;;;;;;;;;5047208;28;921;-65
2021/03/29 13:32:42;;;;;;;;;;;;;;;;;;5044817;28;913;-65
2021/03/29 13:35:08;;;;;;;;;;;;;;;;;;5046597;28;843;-66
2021/03/29 13:37:33;;;;;;;;;;;;;;;;;;5046035;28;1356;-65
2021/03/29 13:40:00;;;;;;;;;;;;;;;;;;5046454;28;886;-65
2021/03/29 13:42:25;;;;;;;;;;;;;;;;;;5046267;28;1893;-66
2021/03/29 13:44:51;;;;;;;;;;;;;;;;;;5046487;28;857;-65
2021/03/29 13:47:17;;;;;;;;;;;;;;;;;;5047730;28;950;-62
2021/03/29 13:49:43;;;;;;;;;;;;;;;;;;5046927;28;914;-62
2021/03/29 13:52:08;;;;;;;;;;;;;;;;;;5047281;28;1057;-61
2021/03/29 13:54:36;;;;;;;;;;;;;;;;;;5062442;28;1007;-62
2021/03/29 13:57:06;;;;;;;;;;;;;;;;;;5066667;28;887;-63
2021/03/29 13:59:32;;;;;;;;;;;;;;;;;;5063317;28;1045;-61
2021/03/29 14:01:57;;;;;;;;;;;;;;;;;;5066525;28;1902;-60
2021/03/29 14:04:23;;;;;;;;;;;;;;;;;;5066610;28;902;-61
2021/03/29 14:06:48;;;;;;;;;;;;;;;;;;5056386;28;1351;-60
2021/03/29 14:09:15;;;;;;;;;;;;;;;;;;5046775;28;903;-60
2021/03/29 14:11:41;;;;;;;;;;;;;;;;;;5046390;28;890;-60
2021/03/29 14:14:07;;;;;;;;;;;;;;;;;;5047882;28;844;-60
2021/03/29 14:16:32;;;;;;;;;;;;;;;;;;5050550;28;816;-60
2021/03/29 14:19:01;;;;;;;;;;;;;;;;;;5050448;28;914;-60
2021/03/29 14:21:26;;;;;;;;;;;;;;;;;;5050296;28;1969;-61
2021/03/29 14:23:52;;;;;;;;;;;;;;;;;;5050174;28;926;-61
2021/03/29 14:26:17;;;;;;;;;;;;;;;;;;5051171;28;835;-64
2021/03/29 14:28:43;;;;;;;;;;;;;;;;;;5050108;28;851;-61
2021/03/29 14:31:09;;;;;;;;;;;;;;;;;;5049968;28;977;-61
2021/03/29 14:33:36;;;;;;;;;;;;;;;;;;5050740;28;982;-60
2021/03/29 14:41:41;;;;;;;;;;;;;;;;;;5050246;28;1918;-61
2021/03/29 14:44:29;;;;;;;;;;;;;;;;;;5049815;28;945;-62
2021/03/29 14:46:54;;;;;;;;;;;;;;;;;;5049641;28;843;-62
2021/03/29 14:49:20;;;;;;;;;;;;;;;;;;5050499;28;811;-62
2021/03/29 14:51:45;;;;;;;;;;;;;;;;;;5050234;28;956;-62
2021/03/29 14:54:11;;;;;;;;;;;;;;;;;;5061540;28;1019;-61
2021/03/29 14:56:36;;;;;;;;;;;;;;;;;;5068960;28;830;-61
2021/03/29 14:59:05;;;;;;;;;;;;;;;;;;5069444;28;858;-62
2021/03/29 15:01:32;;;;;;;;;;;;;;;;;;5040067;28;1922;-61
2021/03/29 15:03:57;;;;;;;;;;;;;;;;;;5045522;28;1096;-61
2021/03/29 15:08:57;;;;;;;;;;;;;;;;;;5053975;28;1234;-63
2021/03/29 15:11:23;;;;;;;;;;;;;;;;;;5051618;28;1210;-61
2021/03/29 15:13:52;;;;;;;;;;;;;;;;;;5058189;28;1171;-61
2021/03/29 15:16:17;;;;;;;;;;;;;;;;;;5058858;28;1194;-62
2021/03/29 15:18:42;;;;;;;;;;;;;;;;;;5058086;28;1147;-62
2021/03/29 15:21:08;;;;;;;;;;;;;;;;;;5056223;28;1972;-64
2021/03/29 15:23:33;;;;;;;;;;;;;;;;;;5057836;28;1152;-61
2021/03/29 15:25:58;;;;;;;;;;;;;;;;;;5067834;28;832;-62
2021/03/29 15:28:24;;;;;;;;;;;;;;;;;;5067086;28;1202;-61
2021/03/29 15:30:49;;;;;;;;;;;;;;;;;;5067587;28;1210;-61
2021/03/29 15:33:15;;;;;;;;;;;;;;;;;;5068024;28;1154;-61
2021/03/29 15:35:40;;;;;;;;;;;;;;;;;;5057422;28;1123;-61
2021/03/29 15:38:06;;;;;;;;;;;;;;;;;;5060654;28;1155;-64
2021/03/29 15:40:32;;;;;;;;;;;;;;;;;;5048603;28;1198;-62
2021/03/29 15:42:57;;;;;;;;;;;;;;;;;;5048440;28;1894;-62
2021/03/29 15:45:22;;;;;;;;;;;;;;;;;;5048506;28;907;-62
2021/03/29 15:47:48;;;;;;;;;;;;;;;;;;5050489;28;1203;-64
2021/03/29 15:50:13;;;;;;;;;;;;;;;;;;5048059;28;1249;-63
2021/03/29 15:52:39;;;;;;;;;;;;;;;;;;5049149;28;1163;-62
2021/03/29 15:55:04;;;;;;;;;;;;;;;;;;5067632;28;730;-64
2021/03/29 15:57:35;;;;;;;;;;;;;;;;;;5068344;28;803;-63
2021/03/29 16:00:01;;;;;;;;;;;;;;;;;;5064683;28;1061;-63
2021/03/29 16:02:28;;;;;;;;;;;;;;;;;;5067045;28;1901;-62
2021/03/29 16:04:57;;;;;;;;;;;;;;;;;;5067893;28;1225;-62
2021/03/29 16:07:23;;;;;;;;;;;;;;;;;;5045991;28;1248;-62
2021/03/29 16:09:48;;;;;;;;;;;;;;;;;;5056615;28;1315;-62
2021/03/29 16:12:14;;;;;;;;;;;;;;;;;;5047434;28;819;-62
2021/03/29 16:14:39;;;;;;;;;;;;;;;;;;5047401;28;815;-62
2021/03/29 16:17:05;;;;;;;;;;;;;;;;;;5046658;28;874;-62
2021/03/29 16:19:30;;;;;;;;;;;;;;;;;;5046810;28;887;-62
2021/03/29 16:21:57;;;;;;;;;;;;;;;;;;5047806;28;1902;-62
2021/03/29 16:24:23;;;;;;;;;;;;;;;;;;5047746;28;997;-62
2021/03/29 16:27:06;;;;;;;;;;;;;;;;;;5048056;28;890;-62
2021/03/29 16:29:39;;;;;;;;;;;;;;;;;;5047252;28;831;-62
2021/03/29 16:32:05;;;;;;;;;;;;;;;;;;5060930;28;1155;-63
2021/03/29 16:34:30;;;;;;;;;;;;;;;;;;5067370;28;906;-64
2021/03/29 16:36:56;;;;;;;;;;;;;;;;;;5066640;28;815;-63
2021/03/29 16:39:21;;;;;;;;;;;;;;;;;;5066687;28;862;-63
2021/03/29 16:41:47;;;;;;;;;;;;;;;;;;5065598;28;1905;-62
2021/03/29 16:44:12;;;;;;;;;;;;;;;;;;5050464;28;1151;-63
2021/03/29 16:46:38;;;;;;;;;;;;;;;;;;5047822;28;1157;-62
2021/03/29 16:49:03;;;;;;;;;;;;;;;;;;5054067;28;1221;-63
2021/03/29 16:51:29;;;;;;;;;;;;;;;;;;5052454;28;1176;-63
2021/03/29 16:53:54;;;;;;;;;;;;;;;;;;5039340;28;1635;-63
2021/03/29 16:56:19;;;;;;;;;;;;;;;;;;5027949;28;1241;-60
2021/03/29 16:58:45;;;;;;;;;;;;;;;;;;5026538;28;848;-60
2021/03/29 17:01:10;;;;;;;;;;;;;;;;;;5026140;28;1879;-60
2021/03/29 17:03:35;;;;;;;;;;;;;;;;;;5027080;28;820;-61
2021/03/29 17:06:01;;;;;;;;;;;;;;;;;;5026972;28;878;-61
2021/03/29 17:08:26;;;;;;;;;;;;;;;;;;5027317;28;890;-61
2021/03/29 17:10:53;;;;;;;;;;;;;;;;;;5027332;28;843;-62
2021/03/29 17:13:18;;;;;;;;;;;;;;;;;;5027357;28;819;-61
2021/03/29 17:15:44;;;;;;;;;;;;;;;;;;5026886;28;881;-61
2021/03/29 17:18:09;;;;;;;;;;;;;;;;;;5031317;28;1478;-62
2021/03/29 17:20:34;;;;;;;;;;;;;;;;;;5056329;28;1081;-62
2021/03/29 17:23:00;;;;;;;;;;;;;;;;;;5050738;28;1895;-61
2021/03/29 17:25:25;;;;;;;;;;;;;;;;;;5035234;28;906;-61
2021/03/29 17:27:51;;;;;;;;;;;;;;;;;;5046528;28;1249;-62
2021/03/29 17:30:17;;;;;;;;;;;;;;;;;;5047563;28;1175;-62
2021/03/29 17:32:43;;;;;;;;;;;;;;;;;;5065106;28;1076;-61
2021/03/29 17:35:10;;;;;;;;;;;;;;;;;;5066184;28;866;-63
2021/03/29 17:37:36;;;;;;;;;;;;;;;;;;5066649;28;891;-61